Maria — SV7156 — position and weather

sailwx.info

Track history (hours):
 
Tides and Currents Weather Stations Pressure Air Temp Water Temp Dewpoint Dewpoint Depression Visibility Wind Speed Wind Dir Waves Ship Positions

Maria

Last reported at 2015-May-06 19:19 UTC. Time now 2015-May-06 20:34 UTC.
Position N 37°58' E 023°35'.

Length 74 m; draft 4.5 m.

Type: Ship. MMSI: 237493000.

Date/timePositionNaut miles runAvg speedWind from/ knotsBaromVisibWave heightAir tempDewpointWater temp
2015-May-06 19:19N 37°58' E 023°35'2 2.5
2015-May-06 18:33N 37°56' E 023°34'0 0.0
2015-May-06 17:33N 37°56' E 023°34'0 0.0
2015-May-06 16:33N 37°56' E 023°34'0 0.0
2015-May-06 15:33N 37°56' E 023°34'0 0.2
2015-May-06 14:33N 37°56' E 023°34'2 2.1
2015-May-06 13:33N 37°58' E 023°35'0 0.0
2015-May-06 12:33N 37°58' E 023°35'1 0.9
2015-May-06 11:33N 37°57' E 023°35'1 0.5
2015-May-06 10:33N 37°57' E 023°36'0 0.0
2015-May-06 09:33N 37°57' E 023°36'0 0.0
2015-May-06 08:33N 37°57' E 023°36'0 0.0
2015-May-06 07:33N 37°57' E 023°36'1 0.0
2015-May-04 20:33N 37°58' E 023°35'6 5.8
2015-May-04 19:34N 37°52' E 023°32'0 0.1
2015-May-04 18:33N 37°52' E 023°32'0 0.1
2015-May-04 17:33N 37°52' E 023°33'0 0.0
2015-May-04 16:33N 37°52' E 023°33'0 0.0
2015-May-04 15:33N 37°52' E 023°33'1 0.8
2015-May-04 14:33N 37°53' E 023°32'0 0.0
2015-May-04 13:33N 37°53' E 023°32'0 0.0
2015-May-04 12:33N 37°53' E 023°32'0 0.0
2015-May-04 11:33N 37°53' E 023°32'0 0.1
2015-May-04 10:33N 37°53' E 023°32'0 0.0
2015-May-04 09:33N 37°53' E 023°32'5 0.1
2015-May-02 11:34N 37°58' E 023°35'1 1.1
2015-May-02 10:33N 37°57' E 023°36'0 0.0
2015-May-02 09:34N 37°57' E 023°36'0 0.0
2015-May-02 08:33N 37°57' E 023°36'0 0.0
2015-May-02 07:33N 37°57' E 023°36'1 1.1
2015-May-02 06:33N 37°57' E 023°35'0 0.0
2015-Apr-30 23:18N 37°58' E 023°35'4 5.0
2015-Apr-30 22:33N 37°54' E 023°34'1 1.1
2015-Apr-30 21:33N 37°53' E 023°33'0 0.0
2015-Apr-30 20:33N 37°53' E 023°33'0 0.0
2015-Apr-30 19:33N 37°53' E 023°33'2 2.4
2015-Apr-30 18:33N 37°55' E 023°34'6 5.6
2015-Apr-30 17:33N 38°01' E 023°34'2 1.6
2015-Apr-30 16:33N 38°02' E 023°36'0 0.0
2015-Apr-30 15:33N 38°02' E 023°36'0 0.0
2015-Apr-30 14:33N 38°02' E 023°36'1 1.3
2015-Apr-30 13:33N 38°01' E 023°34'3 3.5
2015-Apr-30 12:33N 37°58' E 023°35'0 0.0
2015-Apr-30 11:33N 37°58' E 023°35'0 0.0
2015-Apr-30 10:33N 37°58' E 023°35'0 0.0
2015-Apr-30 09:33N 37°58' E 023°35'1 1.1
2015-Apr-30 08:33N 37°57' E 023°36'0 0.0
2015-Apr-30 07:33N 37°57' E 023°36'0 0.0
2015-Apr-30 06:33N 37°57' E 023°36'1 0.1
2015-Apr-29 22:16N 37°58' E 023°35'4 5.7
2015-Apr-29 21:33N 37°54' E 023°33'2 2.4
2015-Apr-29 20:33N 37°51' E 023°32'0 0.1
2015-Apr-29 19:33N 37°51' E 023°32'0 0.0
2015-Apr-29 18:33N 37°51' E 023°32'0 0.2
2015-Apr-29 17:33N 37°51' E 023°32'6 6.2
2015-Apr-29 16:30N 37°58' E 023°35'0 0.0
2015-Apr-29 12:04N 37°58' E 023°35'0 0.1
2015-Apr-29 11:33N 37°58' E 023°35'2 2.2
2015-Apr-29 10:33N 37°55' E 023°34'2 1.5
2015-Apr-29 09:33N 37°54' E 023°33'1 1.2
2015-Apr-29 08:33N 37°55' E 023°34'2 2.5
2015-Apr-29 07:33N 37°58' E 023°35'0 0.0
2015-Apr-29 06:33N 37°58' E 023°35'0 0.0
2015-Apr-29 05:33N 37°58' E 023°35'1 1.3
2015-Apr-29 04:33N 37°58' E 023°33'5 4.4
2015-Apr-29 03:30N 38°02' E 023°36'0 0.0
2015-Apr-29 02:33N 38°02' E 023°36'0 0.0
2015-Apr-29 01:33N 38°02' E 023°36'0 0.0
2015-Apr-29 00:33N 38°02' E 023°36'0 0.0
2015-Apr-28 23:33N 38°02' E 023°36'0 0.0
2015-Apr-28 22:33N 38°02' E 023°36'1 1.0
2015-Apr-28 21:33N 38°01' E 023°34'0 0.0
2015-Apr-28 20:33N 38°01' E 023°35'0 0.0
2015-Apr-28 19:33N 38°01' E 023°35'0 0.0
2015-Apr-28 18:33N 38°01' E 023°34'0 0.0
2015-Apr-28 17:33N 38°01' E 023°34'0 0.0
2015-Apr-28 16:33N 38°01' E 023°34'0 0.0
2015-Apr-28 15:33N 38°01' E 023°34'0 0.0
2015-Apr-28 14:33N 38°01' E 023°34'0 0.0
2015-Apr-28 13:33N 38°01' E 023°34'0 0.0
2015-Apr-28 12:32N 38°01' E 023°34'0 0.0
2015-Apr-28 11:33N 38°01' E 023°34'0 0.0
2015-Apr-28 10:31N 38°01' E 023°34'0 0.0
2015-Apr-28 09:32N 38°01' E 023°34'4 3.9
2015-Apr-28 08:34N 37°58' E 023°35'0 0.0
2015-Apr-27 18:16N 37°58' E 023°35'3 4.1
2015-Apr-27 17:33N 37°55' E 023°34'0 0.0
2015-Apr-27 16:33N 37°55' E 023°34'1 0.7
2015-Apr-27 15:33N 37°55' E 023°34'2 1.9
2015-Apr-27 14:33N 37°57' E 023°35'  
Track history (hours):
 
Tides and Currents Weather Stations Pressure Air Temp Water Temp Dewpoint Dewpoint Depression Visibility Wind Speed Wind Dir Waves Ship Positions

Maria

Last reported at 2015-May-06 19:19 UTC. Time now 2015-May-06 20:34 UTC.
Position N 37°58' E 023°35'.

Length 74 m; draft 4.5 m.

Type: Ship. MMSI: 237493000.

Date/timePositionNaut miles runAvg speedWind from/ knotsBaromVisibWave heightAir tempDewpointWater temp
2015-May-06 19:19N 37°58' E 023°35'2 2.5
2015-May-06 18:33N 37°56' E 023°34'0 0.0
2015-May-06 17:33N 37°56' E 023°34'0 0.0
2015-May-06 16:33N 37°56' E 023°34'0 0.0
2015-May-06 15:33N 37°56' E 023°34'0 0.2
2015-May-06 14:33N 37°56' E 023°34'2 2.1
2015-May-06 13:33N 37°58' E 023°35'0 0.0
2015-May-06 12:33N 37°58' E 023°35'1 0.9
2015-May-06 11:33N 37°57' E 023°35'1 0.5
2015-May-06 10:33N 37°57' E 023°36'0 0.0
2015-May-06 09:33N 37°57' E 023°36'0 0.0
2015-May-06 08:33N 37°57' E 023°36'0 0.0
2015-May-06 07:33N 37°57' E 023°36'1 0.0
2015-May-04 20:33N 37°58' E 023°35'6 5.8
2015-May-04 19:34N 37°52' E 023°32'0 0.1
2015-May-04 18:33N 37°52' E 023°32'0 0.1
2015-May-04 17:33N 37°52' E 023°33'0 0.0
2015-May-04 16:33N 37°52' E 023°33'0 0.0
2015-May-04 15:33N 37°52' E 023°33'1 0.8
2015-May-04 14:33N 37°53' E 023°32'0 0.0
2015-May-04 13:33N 37°53' E 023°32'0 0.0
2015-May-04 12:33N 37°53' E 023°32'0 0.0
2015-May-04 11:33N 37°53' E 023°32'0 0.1
2015-May-04 10:33N 37°53' E 023°32'0 0.0
2015-May-04 09:33N 37°53' E 023°32'5 0.1
2015-May-02 11:34N 37°58' E 023°35'1 1.1
2015-May-02 10:33N 37°57' E 023°36'0 0.0
2015-May-02 09:34N 37°57' E 023°36'0 0.0
2015-May-02 08:33N 37°57' E 023°36'0 0.0
2015-May-02 07:33N 37°57' E 023°36'1 1.1
2015-May-02 06:33N 37°57' E 023°35'0 0.0
2015-Apr-30 23:18N 37°58' E 023°35'4 5.0
2015-Apr-30 22:33N 37°54' E 023°34'1 1.1
2015-Apr-30 21:33N 37°53' E 023°33'0 0.0
2015-Apr-30 20:33N 37°53' E 023°33'0 0.0
2015-Apr-30 19:33N 37°53' E 023°33'2 2.4
2015-Apr-30 18:33N 37°55' E 023°34'6 5.6
2015-Apr-30 17:33N 38°01' E 023°34'2 1.6
2015-Apr-30 16:33N 38°02' E 023°36'0 0.0
2015-Apr-30 15:33N 38°02' E 023°36'0 0.0
2015-Apr-30 14:33N 38°02' E 023°36'1 1.3
2015-Apr-30 13:33N 38°01' E 023°34'3 3.5
2015-Apr-30 12:33N 37°58' E 023°35'0 0.0
2015-Apr-30 11:33N 37°58' E 023°35'0 0.0
2015-Apr-30 10:33N 37°58' E 023°35'0 0.0
2015-Apr-30 09:33N 37°58' E 023°35'1 1.1
2015-Apr-30 08:33N 37°57' E 023°36'0 0.0
2015-Apr-30 07:33N 37°57' E 023°36'0 0.0
2015-Apr-30 06:33N 37°57' E 023°36'1 0.1
2015-Apr-29 22:16N 37°58' E 023°35'4 5.7
2015-Apr-29 21:33N 37°54' E 023°33'2 2.4
2015-Apr-29 20:33N 37°51' E 023°32'0 0.1
2015-Apr-29 19:33N 37°51' E 023°32'0 0.0
2015-Apr-29 18:33N 37°51' E 023°32'0 0.2
2015-Apr-29 17:33N 37°51' E 023°32'6 6.2
2015-Apr-29 16:30N 37°58' E 023°35'0 0.0
2015-Apr-29 12:04N 37°58' E 023°35'0 0.1
2015-Apr-29 11:33N 37°58' E 023°35'2 2.2
2015-Apr-29 10:33N 37°55' E 023°34'2 1.5
2015-Apr-29 09:33N 37°54' E 023°33'1 1.2
2015-Apr-29 08:33N 37°55' E 023°34'2 2.5
2015-Apr-29 07:33N 37°58' E 023°35'0 0.0
2015-Apr-29 06:33N 37°58' E 023°35'0 0.0
2015-Apr-29 05:33N 37°58' E 023°35'1 1.3
2015-Apr-29 04:33N 37°58' E 023°33'5 4.4
2015-Apr-29 03:30N 38°02' E 023°36'0 0.0
2015-Apr-29 02:33N 38°02' E 023°36'0 0.0
2015-Apr-29 01:33N 38°02' E 023°36'0 0.0
2015-Apr-29 00:33N 38°02' E 023°36'0 0.0
2015-Apr-28 23:33N 38°02' E 023°36'0 0.0
2015-Apr-28 22:33N 38°02' E 023°36'1 1.0
2015-Apr-28 21:33N 38°01' E 023°34'0 0.0
2015-Apr-28 20:33N 38°01' E 023°35'0 0.0
2015-Apr-28 19:33N 38°01' E 023°35'0 0.0
2015-Apr-28 18:33N 38°01' E 023°34'0 0.0
2015-Apr-28 17:33N 38°01' E 023°34'0 0.0
2015-Apr-28 16:33N 38°01' E 023°34'0 0.0
2015-Apr-28 15:33N 38°01' E 023°34'0 0.0
2015-Apr-28 14:33N 38°01' E 023°34'0 0.0
2015-Apr-28 13:33N 38°01' E 023°34'0 0.0
2015-Apr-28 12:32N 38°01' E 023°34'0 0.0
2015-Apr-28 11:33N 38°01' E 023°34'0 0.0
2015-Apr-28 10:31N 38°01' E 023°34'0 0.0
2015-Apr-28 09:32N 38°01' E 023°34'4 3.9
2015-Apr-28 08:34N 37°58' E 023°35'0 0.0
2015-Apr-27 18:16N 37°58' E 023°35'3 4.1
2015-Apr-27 17:33N 37°55' E 023°34'0 0.0
2015-Apr-27 16:33N 37°55' E 023°34'1 0.7
2015-Apr-27 15:33N 37°55' E 023°34'2 1.9
2015-Apr-27 14:33N 37°57' E 023°35'  

Dump ship's entire track history